Latest Weather Observations for Daly Waters

IDD60801

Issued at 10:01 am CST Friday 31 July 2015 (issued every 30 minutes, with the page automatically refreshed every 10 minutes)

About weather observations | Map of weather stations | Latest weather observations for NT | Other Formats
Station Details ID: 014626 Name: DALY WATERS AIRSTRIP Lat: -16.26 Lon: 133.38 Height: 209.84 m
Data from the previous 72 hours. | See also: Recent months at Daly Waters
Date/Time
CST
Temp
°C
App
Temp
°C
Dew
Point
Rel
Hum
%
Delta-T
°C
Wind Press
QNH
hPa
Press
MSL
hPa
Rain
since 9 am
mm
Dir
 
Spd
km/h
Gust
km/h
Spd
kts
Gust
kts
31/10:00am 25.0 24.8 13.5 48 6.8 ENE 7 13 4 7 1019.4 1018.7 0.0
31/09:30am 23.3 22.8 12.0 49 6.4 ENE 6 9 3 5 1019.6 1018.9 0.0
31/09:00am 20.9 19.9 7.5 42 7.0 E 2 4 1 2 1019.5 1018.8 0.0
31/08:30am 18.4 16.4 4.2 39 6.8 ESE 4 7 2 4 1019.3 1018.6 0.0
31/08:00am 14.4 12.6 3.5 48 5.0 SSE 2 4 1 2 1019.0 1018.3 0.0
31/07:30am 9.5 7.8 4.1 69 2.4 S 2 2 1 1 1018.8 1018.1 0.0
31/07:00am 8.6 6.8 3.4 70 2.3 S 2 4 1 2 1018.6 1017.9 0.0
31/06:30am 8.5 7.0 3.1 69 2.3 CALM 0 0 0 0 1018.2 1017.6 0.0
31/06:00am 8.6 7.1 2.8 67 2.5 CALM 0 0 0 0 1018.0 1017.4 0.0
31/05:30am 8.9 7.3 2.7 65 2.7 CALM 0 2 0 1 1017.7 1017.1 0.0
31/05:00am 10.0 7.6 2.4 59 3.3 SSE 4 4 2 2 1017.5 1016.8 0.0
31/04:30am 10.6 7.9 2.4 57 3.5 S 6 7 3 4 1017.5 1016.8 0.0
31/04:00am 12.3 9.5 1.9 49 4.5 SE 6 6 3 3 1017.7 1017.1 0.0
31/03:30am 15.1 12.3 2.0 41 5.8 SE 6 7 3 4 1017.8 1017.2 0.0
31/03:00am 16.4 13.2 2.8 40 6.2 ENE 9 15 5 8 1018.0 1017.4 0.0
31/02:30am 16.0 13.4 3.4 43 5.8 SE 6 9 3 5 1017.8 1017.2 0.0
31/02:00am 15.2 12.7 4.6 49 5.0 SSE 7 9 4 5 1018.1 1017.5 0.0
31/01:30am 12.8 10.7 3.7 54 4.1 SSE 4 4 2 2 1018.3 1017.7 0.0
31/01:00am 14.0 11.9 3.8 50 4.7 SE 4 7 2 4 1018.6 1017.9 0.0
31/12:30am 15.0 12.8 3.2 45 5.4 SE 4 6 2 3 1018.7 1018.0 0.0
31/12:00am 17.4 14.8 3.0 38 6.7 SSE 6 7 3 4 1018.8 1018.1 0.0
 
Date/Time
CST
Temp
°C
App
Temp
°C
Dew
Point
Rel
Hum
%
Delta-T
°C
Wind Press
QNH
hPa
Press
MSL
hPa
Rain
since 9 am
mm
Dir
 
Spd
km/h
Gust
km/h
Spd
kts
Gust
kts
30/11:30pm 19.4 17.1 2.7 33 7.8 SE 4 6 2 3 1019.0 1018.3 0.0
30/11:00pm 21.4 18.7 3.6 31 8.6 SE 7 13 4 7 1018.7 1018.0 0.0
30/10:30pm 22.5 19.4 3.6 29 9.2 SSE 9 15 5 8 1018.7 1018.0 0.0
30/10:00pm 23.4 20.4 3.9 28 9.6 SSE 9 19 5 10 1018.8 1018.1 0.0
30/09:30pm 23.4 20.0 3.9 28 9.6 SSE 11 19 6 10 1018.6 1017.9 0.0
30/09:00pm 23.1 20.0 3.6 28 9.5 SSE 9 13 5 7 1018.4 1017.8 0.0
30/08:30pm 20.6 18.1 3.8 33 8.1 SSE 6 9 3 5 1018.2 1017.6 0.0
30/08:00pm 20.6 18.0 3.3 32 8.3 S 6 7 3 4 1017.9 1017.3 0.0
30/07:30pm 22.4 19.9 3.5 29 9.2 S 6 7 3 4 1017.5 1016.8 0.0
30/07:00pm 25.0 22.4 4.2 26 10.4 S 7 11 4 6 1017.3 1016.6 0.0
30/06:30pm 27.3 24.7 4.4 23 11.7 SSE 7 13 4 7 1017.0 1016.3 0.0
30/06:00pm 28.8 25.5 4.3 21 12.6 SSE 11 17 6 9 1016.8 1016.1 0.0
30/05:30pm 29.8 26.1 4.4 20 13.2 SSE 13 20 7 11 1016.7 1016.0 0.0
30/05:00pm 31.0 29.1 4.7 19 13.8 SSW 4 13 2 7 1016.5 1015.8 0.0
30/04:30pm 31.2 28.7 4.9 19 13.9 SE 7 22 4 12 1016.6 1015.9 0.0
30/04:00pm 31.6 29.2 5.2 19 14.0 E 7 15 4 8 1016.5 1015.8 0.0
30/03:30pm 30.9 27.6 4.6 19 13.8 SE 11 19 6 10 1016.8 1016.1 0.0
30/03:00pm 31.5 28.8 5.8 20 13.8 E 9 22 5 12 1017.0 1016.3 0.0
30/02:30pm 31.0 27.5 5.4 20 13.6 SE 13 24 7 13 1017.6 1016.9 0.0
30/02:00pm 31.0 28.4 6.1 21 13.4 ENE 9 15 5 8 1018.0 1017.4 0.0
30/01:30pm 30.3 27.6 5.6 21 13.1 NE 9 24 5 13 1018.6 1017.9 0.0
30/01:00pm 29.8 26.6 5.1 21 13.0 ENE 11 17 6 9 1019.2 1018.5 0.0
30/12:30pm 30.1 27.5 6.1 22 12.8 NE 9 17 5 9 1019.9 1019.2 0.0
30/12:00pm 29.6 26.6 7.5 25 12.0 ESE 13 22 7 12 1020.3 1019.6 0.0
30/11:30am 28.8 25.7 7.4 26 11.6 ESE 13 30 7 16 1020.7 1020.0 0.0
30/11:00am 27.8 25.1 5.4 24 11.7 ESE 9 20 5 11 1021.0 1020.3 0.0
30/10:30am 26.7 23.4 2.6 21 11.9 SE 9 19 5 10 1021.3 1020.6 0.0
30/10:00am 25.6 21.4 1.7 21 11.5 SE 13 20 7 11 1021.3 1020.6 0.0
30/09:30am 23.4 19.4 0.5 22 10.6 SE 11 20 6 11 1021.3 1020.6 0.0
30/09:00am 21.7 18.2 1.4 26 9.4 SE 9 15 5 8 1021.2 1020.5 0.0
30/08:30am 22.0 18.1 1.1 25 9.7 SE 11 19 6 10 1020.8 1020.1 0.0
30/08:00am 20.3 17.1 3.1 32 8.2 SE 9 19 5 10 1020.5 1019.8 0.0
30/07:30am 17.1 15.4 5.7 47 5.6 ESE 4 6 2 3 1020.2 1019.5 0.0
30/07:00am 15.4 13.9 4.8 49 5.0 ESE 2 6 1 3 1019.8 1019.1 0.0
30/06:30am 16.0 14.1 4.7 47 5.4 SE 4 9 2 5 1019.6 1018.9 0.0
30/06:00am 16.0 13.5 5.0 48 5.3 SSE 7 11 4 6 1019.2 1018.5 0.0
30/05:30am 14.8 12.5 4.8 51 4.7 SSE 6 7 3 4 1019.2 1018.5 0.0
30/05:00am 14.6 12.4 5.1 53 4.5 SSE 6 7 3 4 1019.1 1018.4 0.0
30/04:30am 14.2 12.3 5.0 54 4.3 SSE 4 6 2 3 1019.0 1018.3 0.0
30/04:00am 12.6 10.4 5.3 61 3.4 SSE 6 7 3 4 1019.1 1018.4 0.0
30/03:30am 12.2 10.4 5.4 63 3.2 SSE 4 6 2 3 1019.3 1018.6 0.0
30/03:00am 12.3 10.4 4.8 60 3.5 SSE 4 6 2 3 1019.3 1018.6 0.0
30/02:30am 13.0 11.4 4.7 57 3.8 SSE 2 2 1 1 1019.5 1018.8 0.0
30/02:00am 13.6 11.2 4.5 54 4.2 S 6 7 3 4 1019.7 1019.0 0.0
30/01:30am 15.8 13.7 3.9 45 5.5 SSE 4 6 2 3 1019.9 1019.2 0.0
30/01:00am 19.3 17.0 4.6 38 7.2 ESE 6 7 3 4 1020.1 1019.4 0.0
30/12:30am 19.2 16.6 6.0 42 6.6 ENE 9 17 5 9 1020.2 1019.5 0.0
30/12:00am 14.6 12.4 5.4 54 4.4 SSE 6 6 3 3 1019.8 1019.1 0.0
 
Date/Time
CST
Temp
°C
App
Temp
°C
Dew
Point
Rel
Hum
%
Delta-T
°C
Wind Press
QNH
hPa
Press
MSL
hPa
Rain
since 9 am
mm
Dir
 
Spd
km/h
Gust
km/h
Spd
kts
Gust
kts
29/11:30pm 15.6 13.4 5.5 51 4.9 SSE 6 7 3 4 1019.7 1019.0 0.0
29/11:00pm 16.4 14.3 5.7 49 5.2 SSE 6 9 3 5 1019.6 1018.9 0.0
29/10:30pm 15.8 13.9 6.5 54 4.6 SSE 6 7 3 4 1019.7 1019.0 0.0
29/10:00pm 15.0 12.8 5.5 53 4.6 SSE 6 6 3 3 1019.6 1018.9 0.0
29/09:30pm 15.9 13.7 5.2 49 5.1 SSE 6 6 3 3 1019.6 1018.9 0.0
29/09:00pm 17.3 15.5 5.3 45 5.8 SSE 4 6 2 3 1019.5 1018.8 0.0
29/08:30pm 18.7 16.5 5.2 41 6.6 SSE 6 6 3 3 1019.4 1018.7 0.0
29/08:00pm 21.9 19.7 5.3 34 8.3 SSE 6 7 3 4 1019.1 1018.4 0.0
29/07:30pm 23.6 21.4 5.5 31 9.2 SSE 6 9 3 5 1018.8 1018.1 0.0
29/07:00pm 24.9 22.5 5.2 28 10.1 S 7 11 4 6 1018.4 1017.8 0.0
29/06:30pm 26.8 24.5 5.7 26 11.0 SSE 7 13 4 7 1018.0 1017.4 0.0
29/06:00pm 28.3 25.1 5.2 23 12.0 SE 11 20 6 11 1017.7 1017.1 0.0
29/05:30pm 29.3 25.8 5.4 22 12.6 ESE 13 28 7 15 1017.5 1016.8 0.0
29/05:00pm 29.8 25.5 5.1 21 13.0 ESE 17 24 9 13 1017.4 1016.7 0.0
29/04:30pm 30.3 27.1 4.9 20 13.3 SE 11 19 6 10 1017.4 1016.7 0.0
29/04:00pm 30.4 26.4 4.9 20 13.4 ESE 15 28 8 15 1017.6 1016.9 0.0
29/03:30pm 30.6 26.6 5.1 20 13.4 E 15 24 8 13 1017.7 1017.1 0.0
29/03:00pm 30.6 26.9 4.4 19 13.6 ESE 13 22 7 12 1018.1 1017.5 0.0
29/02:30pm 30.1 25.9 4.0 19 13.5 ESE 15 24 8 13 1018.6 1017.9 0.0
29/02:00pm 29.7 25.6 4.4 20 13.1 SE 15 28 8 15 1019.0 1018.3 0.0
29/01:30pm 29.3 25.1 4.0 20 13.0 SE 15 28 8 15 1019.5 1018.8 0.0
29/01:00pm 28.9 24.9 3.0 19 13.1 ESE 13 26 7 14 1020.2 1019.5 0.0
29/12:30pm 27.6 23.1 1.9 19 12.6 SE 15 26 8 14 1020.8 1020.1 0.0
29/12:00pm 26.3 21.2 0.9 19 12.1 ESE 17 28 9 15 1021.5 1020.8 0.0
29/11:30am 25.7 20.5 0.4 19 11.9 ESE 17 26 9 14 1022.0 1021.4 0.0
29/11:00am 24.3 19.0 -0.8 19 11.4 SE 17 26 9 14 1022.4 1021.8 0.0
29/10:30am 23.9 18.6 -0.4 20 11.1 ESE 17 28 9 15 1022.8 1022.2 0.0
29/10:00am 22.4 17.0 -1.6 20 10.6 SE 17 26 9 14 1022.9 1022.3 0.0
29/09:30am 21.0 15.0 -2.8 20 10.1 SE 19 28 10 15 1022.8 1022.2 0.0
29/09:00am 19.6 14.3 -3.3 21 9.5 SE 15 26 8 14 1022.8 1022.2 0.0
29/08:30am 17.9 12.2 -3.5 23 8.7 SE 17 28 9 15 1022.4 1021.8 0.0
29/08:00am 16.9 12.0 -3.2 25 8.2 SE 13 22 7 12 1022.0 1021.4 0.0
29/07:30am 15.7 11.6 -2.7 28 7.4 SSE 9 15 5 8 1021.5 1020.8 0.0
29/07:00am 15.5 11.1 -2.4 29 7.3 SSE 11 19 6 10 1021.1 1020.4 0.0
29/06:30am 15.6 11.6 -2.3 29 7.3 SSE 9 19 5 10 1020.8 1020.1 0.0
29/06:00am 15.6 11.6 -1.9 30 7.2 SSE 9 17 5 9 1020.7 1020.0 0.0
29/05:30am 15.8 11.9 -1.3 31 7.1 SSE 9 11 5 6 1020.7 1020.0 0.0
29/05:00am 16.0 12.2 -1.1 31 7.2 SSE 9 15 5 8 1020.6 1019.9 0.0
29/04:30am 16.4 12.6 -0.8 31 7.3 SSE 9 15 5 8 1020.6 1019.9 0.0
29/04:00am 16.7 13.3 -0.5 31 7.4 SSE 7 17 4 9 1020.6 1019.9 0.0
29/03:30am 17.1 13.4 -0.1 31 7.4 SSE 9 15 5 8 1020.6 1019.9 0.0
29/03:00am 17.5 13.8 -0.2 30 7.7 SE 9 15 5 8 1020.7 1020.0 0.0
29/02:30am 17.6 13.9 -0.2 30 7.7 SSE 9 19 5 10 1020.9 1020.2 0.0
29/02:00am 17.9 14.2 0.1 30 7.8 SSE 9 15 5 8 1021.0 1020.3 0.0
29/01:30am 18.4 14.7 0.1 29 8.0 SSE 9 15 5 8 1021.1 1020.4 0.0
29/01:00am 18.8 15.2 0.4 29 8.2 SE 9 15 5 8 1021.2 1020.5 0.0
29/12:30am 19.4 15.4 0.4 28 8.5 SE 11 20 6 11 1021.2 1020.5 0.0
29/12:00am 19.5 15.6 1.0 29 8.4 SSE 11 19 6 10 1021.3 1020.6 0.0
 
Date/Time
CST
Temp
°C
App
Temp
°C
Dew
Point
Rel
Hum
%
Delta-T
°C
Wind Press
QNH
hPa
Press
MSL
hPa
Rain
since 9 am
mm
Dir
 
Spd
km/h
Gust
km/h
Spd
kts
Gust
kts
28/11:30pm 19.5 16.4 1.5 30 8.2 SSE 7 15 4 8 1021.3 1020.6 0.0
28/11:00pm 20.3 17.3 1.7 29 8.6 SSE 7 11 4 6 1021.4 1020.7 0.0
28/10:30pm 21.2 17.4 2.0 28 9.0 SSE 11 19 6 10 1021.5 1020.8 0.0
28/10:00pm 21.4 18.1 2.2 28 9.1 SE 9 17 5 9 1021.5 1020.8 0.0
28/09:30pm 21.8 18.4 2.0 27 9.3 SE 9 15 5 8 1021.4 1020.7 0.0
28/09:00pm 21.9 18.6 2.6 28 9.2 SE 9 17 5 9 1021.4 1020.7 0.0
28/08:30pm 21.9 19.1 3.1 29 9.0 SSE 7 13 4 7 1021.3 1020.6 0.0
28/08:00pm 22.1 19.2 2.8 28 9.3 SSE 7 11 4 6 1020.9 1020.2 0.0
28/07:30pm 22.7 19.9 3.3 28 9.4 SSE 7 11 4 6 1020.4 1019.7 0.0
28/07:00pm 23.9 20.7 3.2 26 10.1 SSE 9 15 5 8 1020.1 1019.4 0.0
28/06:30pm 24.9 21.4 3.5 25 10.6 SSE 11 20 6 11 1019.9 1019.2 0.0
28/06:00pm 25.9 22.3 3.2 23 11.2 SE 11 20 6 11 1019.6 1018.9 0.0
28/05:30pm 27.0 22.4 3.5 22 11.8 SE 17 28 9 15 1019.4 1018.7 0.0
28/05:00pm 27.8 23.9 3.5 21 12.3 SE 13 22 7 12 1019.3 1018.6 0.0
28/04:30pm 28.3 24.5 3.9 21 12.4 SE 13 26 7 14 1019.0 1018.3 0.0
28/04:00pm 28.1 23.9 3.7 21 12.4 SE 15 26 8 14 1018.9 1018.2 0.0
28/03:30pm 28.4 24.7 4.6 22 12.3 SE 13 24 7 13 1019.0 1018.3 0.0
28/03:00pm 28.0 23.4 3.7 21 12.3 SSE 17 26 9 14 1019.2 1018.5 0.0
28/02:30pm 28.1 23.9 3.7 21 12.4 SSE 15 24 8 13 1019.6 1018.9 0.0
28/02:00pm 27.5 22.9 3.9 22 12.0 SE 17 28 9 15 1020.1 1019.4 0.0
28/01:30pm 27.5 23.3 3.9 22 11.9 SE 15 28 8 15 1020.7 1020.0 0.0
28/01:00pm 26.5 22.2 3.1 22 11.6 SE 15 28 8 15 1021.3 1020.6 0.0
28/12:30pm 25.8 21.5 3.1 23 11.2 SSE 15 28 8 15 1021.9 1021.3 0.0
28/12:00pm 24.3 19.9 2.5 24 10.5 SE 15 24 8 13 1022.4 1021.8 0.0
28/11:30am 24.1 19.4 2.9 25 10.3 SE 17 26 9 14 1022.8 1022.2 0.0
28/11:00am 22.9 17.7 2.4 26 9.8 SE 19 32 10 17 1023.0 1022.4 0.0
28/10:30am 21.3 16.3 1.6 27 9.1 SE 17 26 9 14 1023.3 1022.7 0.0

Other Formats:

Comma delimited format used in spreadsheet applications
http://www.bom.gov.au/fwo/IDD60801/IDD60801.94234.axf

JavaScript Object Notation format (JSON) in row-major order
http://www.bom.gov.au/fwo/IDD60801/IDD60801.94234.json